Time;durP1;ratioP1;P1;durP2;ratioP2;P2;SDS_P1;SDS_P2;PMS_P1;PMS_P2;Temp;Humidity;BMP_temperature;BMP_pressure;BME280_temperature;BME280_humidity;BME280_pressure;Samples;Min_cycle;Max_cycle;Signal;HPM_P1;HPM_P2
2023/06/21 00:00:30;;;;;;;8.23;4.70;;;19.70;99.40;;;;;;5074379;28;20395;-71
2023/06/21 00:02:59;;;;;;;8.75;5.20;;;19.60;99.20;;;;;;5073854;28;20749;-69
2023/06/21 00:05:25;;;;;;;7.90;5.20;;;19.60;99.00;;;;;;5073584;28;20384;-71
2023/06/21 00:07:53;;;;;;;7.80;4.70;;;19.60;99.20;;;;;;5073952;28;20847;-71
2023/06/21 00:10:23;;;;;;;8.38;5.15;;;19.70;99.50;;;;;;5073876;28;20392;-71
2023/06/21 00:12:53;;;;;;;7.10;5.13;;;19.60;99.90;;;;;;5073786;28;20772;-70
2023/06/21 00:15:19;;;;;;;6.60;5.25;;;19.70;99.20;;;;;;5074410;28;20394;-71
2023/06/21 00:17:45;;;;;;;6.70;5.20;;;19.60;99.70;;;;;;5073777;28;20442;-71
2023/06/21 00:20:12;;;;;;;9.90;5.80;;;19.50;99.90;;;;;;5073773;28;20437;-70
2023/06/21 00:22:38;;;;;;;8.00;5.38;;;19.50;99.90;;;;;;5073299;28;20954;-72
2023/06/21 00:25:04;;;;;;;7.53;5.80;;;19.50;99.90;;;;;;5074042;28;20440;-70
2023/06/21 00:27:30;;;;;;;7.65;6.07;;;19.40;99.90;;;;;;5074114;28;20514;-72
2023/06/21 00:29:55;;;;;;;8.17;5.90;;;19.40;99.90;;;;;;5074104;28;20420;-71
2023/06/21 00:32:21;;;;;;;7.57;5.80;;;19.50;99.90;;;;;;5073398;28;20383;-70
2023/06/21 00:34:47;;;;;;;7.40;5.90;;;19.50;99.90;;;;;;5072726;28;20756;-71
2023/06/21 00:37:16;;;;;;;6.90;5.77;;;19.40;99.90;;;;;;5072313;28;20388;-70
2023/06/21 00:39:41;;;;;;;8.25;5.63;;;19.40;99.90;;;;;;5072033;28;20404;-71
2023/06/21 00:42:08;;;;;;;8.20;5.90;;;19.40;99.90;;;;;;5071627;28;20882;-71
2023/06/21 00:44:34;;;;;;;8.18;5.50;;;19.30;99.90;;;;;;5071459;28;20721;-71
2023/06/21 00:47:00;;;;;;;8.07;6.03;;;19.30;99.90;;;;;;5071400;28;20386;-70
2023/06/21 00:49:27;;;;;;;7.35;5.30;;;19.20;99.90;;;;;;5071353;28;20437;-71
2023/06/21 00:51:57;;;;;;;6.57;5.20;;;19.40;99.90;;;;;;5071145;28;20614;-72
2023/06/21 00:54:26;;;;;;;6.88;5.80;;;19.40;99.90;;;;;;5053181;28;20906;-70
2023/06/21 00:56:53;;;;;;;7.95;5.30;;;19.30;99.90;;;;;;5071457;28;20388;-70
2023/06/21 00:59:19;;;;;;;9.00;5.87;;;19.20;99.90;;;;;;5071404;28;20411;-71
2023/06/21 01:01:45;;;;;;;8.00;5.95;;;19.10;99.90;;;;;;5070946;28;20759;-72
2023/06/21 01:04:12;;;;;;;7.40;5.90;;;19.10;99.90;;;;;;5053140;28;20468;-71
2023/06/21 01:06:47;;;;;;;8.18;5.70;;;19.10;99.90;;;;;;5071086;28;20387;-72
2023/06/21 01:09:22;;;;;;;8.25;6.00;;;19.10;99.90;;;;;;5071165;28;20437;-70
2023/06/21 01:11:57;;;;;;;7.97;5.90;;;19.20;99.90;;;;;;5070963;28;20799;-70
2023/06/21 01:15:25;;;;;;;8.55;5.88;;;19.30;99.90;;;;;;5070941;28;20582;-70
2023/06/21 01:17:52;;;;;;;6.90;5.60;;;19.30;99.90;;;;;;4969860;28;20827;-71
2023/06/21 01:20:24;;;;;;;10.00;6.00;;;19.30;99.90;;;;;;4954015;28;20468;-72
2023/06/21 01:23:41;;;;;;;9.18;6.00;;;19.40;99.90;;;;;;5021658;28;20388;-72
2023/06/21 01:26:32;;;;;;;7.45;5.90;;;19.40;99.90;;;;;;5015840;28;20483;-71
2023/06/21 01:29:14;;;;;;;9.02;5.47;;;19.30;99.90;;;;;;5070796;28;20396;-70
2023/06/21 01:31:42;;;;;;;7.63;5.30;;;19.40;99.90;;;;;;5070766;28;20418;-69
2023/06/21 01:34:09;;;;;;;6.65;5.60;;;19.40;99.90;;;;;;5071006;28;20744;-71
2023/06/21 01:36:36;;;;;;;8.60;5.72;;;19.30;99.90;;;;;;5071048;28;20380;-71
2023/06/21 01:39:04;;;;;;;7.45;5.80;;;19.30;99.90;;;;;;5053018;28;20396;-71
2023/06/21 01:41:29;;;;;;;8.10;6.40;;;19.30;99.90;;;;;;5071219;28;20484;-71
2023/06/21 01:43:55;;;;;;;7.37;6.20;;;19.30;99.90;;;;;;5070862;28;20458;-71
2023/06/21 01:46:23;;;;;;;6.97;6.18;;;19.20;99.90;;;;;;5070997;28;20380;-71
2023/06/21 01:48:49;;;;;;;7.18;6.15;;;19.20;99.90;;;;;;5070833;28;20392;-72
2023/06/21 01:51:16;;;;;;;9.98;6.30;;;19.10;99.90;;;;;;5070560;28;20395;-70
2023/06/21 01:53:42;;;;;;;9.07;6.00;;;19.20;99.90;;;;;;5071124;28;20521;-70
2023/06/21 01:56:11;;;;;;;9.40;6.22;;;19.20;99.90;;;;;;5071402;28;20779;-71
2023/06/21 01:58:37;;;;;;;9.18;6.78;;;19.10;99.90;;;;;;5053261;28;20764;-70
2023/06/21 02:01:03;;;;;;;8.07;6.60;;;19.20;99.90;;;;;;5070565;28;20388;-70
2023/06/21 02:03:31;;;;;;;9.27;6.00;;;19.10;99.90;;;;;;5071284;28;20382;-70
2023/06/21 02:06:00;;;;;;;8.73;6.60;;;19.00;99.90;;;;;;5071414;28;20376;-70
2023/06/21 02:08:27;;;;;;;8.38;6.80;;;19.00;99.90;;;;;;5070806;28;20391;-70
2023/06/21 02:10:53;;;;;;;9.10;6.97;;;19.10;99.90;;;;;;5071171;28;20414;-70
2023/06/21 02:13:18;;;;;;;8.90;6.30;;;19.00;99.90;;;;;;5071566;28;20872;-69
2023/06/21 02:15:46;;;;;;;10.57;6.20;;;19.00;99.90;;;;;;5072948;28;20387;-71
2023/06/21 02:18:12;;;;;;;6.80;5.88;;;19.00;99.90;;;;;;5075116;28;20451;-71
2023/06/21 02:20:38;;;;;;;9.73;6.80;;;19.00;99.90;;;;;;5074873;28;20423;-71
2023/06/21 02:23:05;;;;;;;9.18;7.00;;;18.90;99.90;;;;;;5074701;28;20386;-71
2023/06/21 02:25:35;;;;;;;8.82;7.72;;;18.90;99.90;;;;;;5074742;28;20441;-71
2023/06/21 02:28:01;;;;;;;10.40;7.18;;;18.90;99.90;;;;;;5074611;28;20372;-71
2023/06/21 02:30:26;;;;;;;11.93;7.78;;;18.90;99.90;;;;;;5074534;28;20391;-71
2023/06/21 02:32:52;;;;;;;10.75;7.20;;;18.90;99.90;;;;;;5074073;28;20380;-69
2023/06/21 02:35:17;;;;;;;8.70;7.30;;;18.90;99.90;;;;;;5074264;28;20390;-70
2023/06/21 02:37:43;;;;;;;9.77;6.70;;;18.90;99.90;;;;;;5056872;28;20505;-71
2023/06/21 02:40:09;;;;;;;9.13;7.22;;;19.00;99.90;;;;;;5074593;28;20476;-71
2023/06/21 02:42:37;;;;;;;13.33;7.60;;;18.90;99.90;;;;;;5074580;28;20853;-71
2023/06/21 02:45:02;;;;;;;9.50;7.50;;;18.80;99.90;;;;;;5074918;28;20384;-71
2023/06/21 02:47:28;;;;;;;10.53;7.50;;;18.80;99.90;;;;;;5077537;28;20447;-70
2023/06/21 02:49:53;;;;;;;10.00;7.70;;;18.90;99.90;;;;;;5080493;28;20537;-70
2023/06/21 02:52:19;;;;;;;9.20;7.55;;;19.00;99.90;;;;;;5084007;28;20391;-71
2023/06/21 02:54:44;;;;;;;9.27;7.23;;;18.90;99.90;;;;;;5092005;28;20418;-70
2023/06/21 02:57:10;;;;;;;10.48;7.05;;;18.80;99.90;;;;;;5077805;28;20838;-69
2023/06/21 02:59:36;;;;;;;17.20;7.90;;;18.80;99.90;;;;;;5075926;28;20801;-70
2023/06/21 03:02:01;;;;;;;9.57;7.70;;;18.80;99.90;;;;;;5075055;28;20852;-72
2023/06/21 03:04:27;;;;;;;9.63;7.20;;;18.90;99.90;;;;;;5075341;28;20390;-71
2023/06/21 03:06:53;;;;;;;9.63;7.20;;;18.90;99.90;;;;;;5077095;28;20372;-71
2023/06/21 03:09:19;;;;;;;14.48;7.00;;;18.90;99.90;;;;;;5076258;28;20441;-70
2023/06/21 03:11:46;;;;;;;8.80;7.40;;;18.80;99.90;;;;;;5076008;28;20386;-70
2023/06/21 03:14:12;;;;;;;13.60;7.43;;;18.80;99.90;;;;;;5076564;28;20490;-71
2023/06/21 03:16:37;;;;;;;10.95;7.82;;;18.70;99.90;;;;;;5090418;28;20601;-70
2023/06/21 03:19:03;;;;;;;9.20;7.40;;;18.70;99.90;;;;;;5095243;28;20411;-70
2023/06/21 03:21:28;;;;;;;11.13;7.50;;;18.70;99.90;;;;;;5087615;28;20745;-71
2023/06/21 03:23:54;;;;;;;9.65;7.53;;;18.70;99.90;;;;;;5081261;28;20864;-71
2023/06/21 03:26:20;;;;;;;11.57;7.13;;;18.70;99.90;;;;;;5079585;28;20387;-71
2023/06/21 03:28:45;;;;;;;9.98;7.47;;;18.70;99.90;;;;;;5073482;28;20379;-69
2023/06/21 03:31:11;;;;;;;10.05;7.47;;;18.70;99.90;;;;;;5072979;28;20390;-69
2023/06/21 03:33:36;;;;;;;10.67;7.77;;;18.70;99.90;;;;;;5073021;28;20383;-70
2023/06/21 03:36:03;;;;;;;9.93;7.40;;;18.80;99.90;;;;;;5073026;28;20434;-71
2023/06/21 03:38:29;;;;;;;10.82;6.95;;;18.70;99.90;;;;;;5072932;28;20405;-69
2023/06/21 03:40:54;;;;;;;11.57;7.93;;;18.70;99.90;;;;;;5072774;28;20419;-70
2023/06/21 03:43:20;;;;;;;13.10;8.10;;;18.80;99.90;;;;;;5072679;28;20407;-71
2023/06/21 03:45:46;;;;;;;10.93;7.63;;;18.80;99.90;;;;;;5072745;28;20865;-71
2023/06/21 03:48:11;;;;;;;9.55;6.82;;;18.90;99.90;;;;;;5072873;28;20383;-70
2023/06/21 03:50:37;;;;;;;10.83;8.17;;;18.90;99.90;;;;;;5072606;28;20398;-71
2023/06/21 03:53:06;;;;;;;9.43;7.30;;;19.00;99.90;;;;;;5072358;28;20372;-70
2023/06/21 03:55:31;;;;;;;9.90;7.80;;;19.00;99.90;;;;;;5072738;28;20398;-71
2023/06/21 03:57:57;;;;;;;10.50;7.90;;;19.00;99.90;;;;;;5072411;28;20383;-70
2023/06/21 04:00:22;;;;;;;12.67;8.00;;;19.00;99.90;;;;;;5072628;28;20407;-72
2023/06/21 04:02:48;;;;;;;9.23;7.30;;;19.10;99.90;;;;;;5072424;28;20449;-70
2023/06/21 04:05:14;;;;;;;10.90;7.57;;;19.20;99.90;;;;;;5072618;28;20379;-73
2023/06/21 04:07:40;;;;;;;11.00;7.80;;;19.20;99.90;;;;;;5072382;28;20383;-70
2023/06/21 04:10:06;;;;;;;12.77;8.17;;;19.20;99.90;;;;;;5073307;28;20388;-70
2023/06/21 04:12:32;;;;;;;10.48;7.65;;;19.30;99.90;;;;;;5073262;28;20883;-70
2023/06/21 04:15:01;;;;;;;10.80;8.10;;;19.30;99.90;;;;;;5074419;28;20396;-72
2023/06/21 04:17:27;;;;;;;14.88;8.70;;;19.40;99.90;;;;;;5072101;28;20384;-70
2023/06/21 04:19:55;;;;;;;16.00;8.32;;;19.40;99.90;;;;;;5071900;28;20429;-71
2023/06/21 04:22:23;;;;;;;15.20;9.00;;;19.60;99.90;;;;;;5071639;28;20752;-70
2023/06/21 04:24:49;;;;;;;16.98;8.25;;;19.70;99.90;;;;;;5071994;28;20390;-71
2023/06/21 04:27:14;;;;;;;15.18;8.20;;;19.80;98.90;;;;;;5071732;28;20920;-73
2023/06/21 04:29:40;;;;;;;13.43;8.27;;;19.90;97.50;;;;;;5073187;28;20937;-70
2023/06/21 04:32:08;;;;;;;19.73;11.55;;;20.00;96.90;;;;;;5071659;28;20384;-71
2023/06/21 04:34:34;;;;;;;18.35;8.68;;;20.10;94.70;;;;;;5072244;28;20471;-71
2023/06/21 04:37:05;;;;;;;15.98;8.40;;;20.10;94.10;;;;;;5071643;28;20468;-71
2023/06/21 04:39:31;;;;;;;18.30;8.63;;;20.20;93.30;;;;;;5070925;28;20454;-70
2023/06/21 04:41:58;;;;;;;12.65;8.25;;;20.30;92.80;;;;;;5071372;28;20419;-70
2023/06/21 04:44:24;;;;;;;16.95;8.10;;;20.60;89.80;;;;;;5071613;28;20388;-72
2023/06/21 04:46:50;;;;;;;14.30;8.88;;;20.70;88.00;;;;;;5071585;28;20413;-71
2023/06/21 04:49:17;;;;;;;14.65;8.68;;;20.80;87.50;;;;;;5071632;28;20598;-71
2023/06/21 04:51:43;;;;;;;16.20;8.40;;;20.90;87.10;;;;;;5071350;28;20433;-71
2023/06/21 04:54:09;;;;;;;15.82;8.10;;;21.10;83.90;;;;;;5071434;28;20384;-70
2023/06/21 04:56:35;;;;;;;11.20;7.80;;;21.20;82.50;;;;;;5072215;28;20748;-70
2023/06/21 04:59:03;;;;;;;12.52;8.25;;;21.30;81.00;;;;;;5071299;28;20792;-69
2023/06/21 05:01:32;;;;;;;13.10;8.00;;;21.30;81.00;;;;;;5071605;28;20410;-72
2023/06/21 05:03:58;;;;;;;12.20;7.97;;;21.30;81.50;;;;;;5071671;28;20809;-71
2023/06/21 05:06:25;;;;;;;26.77;9.10;;;21.30;81.00;;;;;;5053573;28;20423;-70
2023/06/21 05:08:51;;;;;;;18.88;8.80;;;21.30;81.40;;;;;;5071325;28;20395;-71
2023/06/21 05:11:18;;;;;;;12.00;8.20;;;21.40;81.50;;;;;;5071374;28;20689;-72
2023/06/21 05:13:44;;;;;;;15.55;8.75;;;21.60;78.70;;;;;;5070886;28;20394;-72
2023/06/21 05:16:09;;;;;;;17.87;9.60;;;21.90;76.00;;;;;;5071677;28;20376;-71
2023/06/21 05:18:35;;;;;;;14.23;8.60;;;22.20;74.30;;;;;;5070898;28;20403;-70
2023/06/21 05:21:01;;;;;;;13.23;10.05;;;22.40;72.40;;;;;;5071069;28;20533;-70
2023/06/21 05:23:26;;;;;;;15.13;10.00;;;22.60;69.10;;;;;;5070751;28;20864;-71
2023/06/21 05:25:52;;;;;;;12.80;9.77;;;22.70;67.40;;;;;;5071102;28;20376;-71
2023/06/21 05:28:17;;;;;;;12.50;9.90;;;22.70;64.90;;;;;;5070870;28;20376;-70
2023/06/21 05:30:43;;;;;;;13.33;10.73;;;22.80;64.90;;;;;;5071016;28;20463;-71
2023/06/21 05:33:08;;;;;;;14.63;9.50;;;22.80;64.40;;;;;;5070831;28;20394;-71
2023/06/21 05:35:34;;;;;;;11.83;9.90;;;22.60;66.50;;;;;;5071285;28;20453;-71
2023/06/21 05:37:59;;;;;;;13.80;10.48;;;22.50;68.60;;;;;;5071337;28;20447;-71
2023/06/21 05:40:25;;;;;;;15.53;10.10;;;22.40;69.90;;;;;;5072684;28;20454;-70
2023/06/21 05:42:50;;;;;;;15.43;10.73;;;22.30;70.50;;;;;;5071862;28;20406;-70
2023/06/21 05:45:17;;;;;;;13.60;10.10;;;22.20;71.80;;;;;;5077807;28;20388;-69
2023/06/21 05:47:43;;;;;;;17.27;10.57;;;22.30;71.60;;;;;;5085197;28;20459;-71
2023/06/21 05:50:09;;;;;;;14.00;11.23;;;22.50;69.20;;;;;;5079909;28;20395;-71
2023/06/21 05:52:35;;;;;;;16.00;10.07;;;22.60;67.30;;;;;;5092561;28;20471;-72
2023/06/21 05:55:00;;;;;;;18.73;11.27;;;22.70;67.80;;;;;;5093181;28;20403;-72
2023/06/21 05:57:26;;;;;;;15.70;10.38;;;22.90;66.30;;;;;;5092048;28;20388;-70
2023/06/21 05:59:53;;;;;;;16.60;10.35;;;23.20;62.60;;;;;;5082824;28;20525;-70
2023/06/21 06:02:19;;;;;;;15.82;10.77;;;23.30;60.60;;;;;;5075331;28;20449;-70
2023/06/21 06:04:44;;;;;;;15.07;9.97;;;23.60;59.80;;;;;;5076388;28;20372;-70
2023/06/21 06:07:12;;;;;;;16.13;10.75;;;23.70;57.60;;;;;;5075923;28;20379;-70
2023/06/21 06:09:38;;;;;;;14.98;10.02;;;23.70;58.30;;;;;;5076529;28;20828;-71
2023/06/21 06:12:04;;;;;;;17.58;11.07;;;23.60;58.10;;;;;;5076186;28;20423;-70
2023/06/21 06:14:29;;;;;;;18.33;10.52;;;23.70;55.70;;;;;;5077365;28;20407;-71
2023/06/21 06:16:55;;;;;;;19.60;11.30;;;23.60;57.10;;;;;;5086991;28;20396;-71
2023/06/21 06:19:20;;;;;;;15.33;10.67;;;23.50;58.50;;;;;;5094396;28;20437;-68
2023/06/21 06:21:47;;;;;;;18.63;11.73;;;23.40;59.60;;;;;;5092329;28;20429;-71
2023/06/21 06:24:12;;;;;;;15.82;10.48;;;23.30;60.00;;;;;;5092182;28;20390;-69
2023/06/21 06:26:38;;;;;;;13.73;11.40;;;23.30;60.20;;;;;;5087096;28;20952;-71
2023/06/21 06:29:03;;;;;;;18.25;11.07;;;23.20;61.80;;;;;;5073645;28;20439;-72
2023/06/21 06:31:30;;;;;;;16.03;12.57;;;23.20;61.60;;;;;;5072630;28;20438;-70
2023/06/21 06:33:56;;;;;;;20.43;11.67;;;23.40;60.60;;;;;;5072481;28;20480;-70
2023/06/21 06:36:21;;;;;;;21.37;12.43;;;23.50;59.70;;;;;;5071063;28;20859;-69
2023/06/21 06:38:48;;;;;;;16.73;12.60;;;23.50;58.80;;;;;;5073545;28;20436;-70
2023/06/21 06:41:15;;;;;;;16.92;11.60;;;23.70;57.00;;;;;;5072321;28;20391;-71
2023/06/21 06:43:40;;;;;;;15.80;11.10;;;23.80;57.80;;;;;;5072994;28;20387;-70
2023/06/21 06:46:06;;;;;;;19.55;12.13;;;24.00;55.90;;;;;;5071417;28;20907;-69
2023/06/21 06:48:31;;;;;;;21.30;12.40;;;24.30;53.80;;;;;;5072609;28;20388;-70
2023/06/21 06:50:57;;;;;;;16.50;11.53;;;24.60;52.30;;;;;;5073277;28;20852;-70
2023/06/21 06:53:23;;;;;;;19.57;12.13;;;24.80;50.80;;;;;;5073040;28;20391;-71
2023/06/21 06:55:51;;;;;;;18.20;12.00;;;25.10;48.40;;;;;;5071666;28;20884;-70
2023/06/21 06:58:16;;;;;;;17.98;11.20;;;25.20;46.30;;;;;;5071458;28;20391;-71
2023/06/21 07:00:42;;;;;;;15.30;10.80;;;25.30;44.90;;;;;;5072015;28;20457;-70
2023/06/21 07:03:07;;;;;;;21.00;11.50;;;25.30;46.70;;;;;;5070399;28;20458;-69
2023/06/21 07:05:35;;;;;;;16.70;11.33;;;25.10;47.90;;;;;;5071123;28;20433;-69
2023/06/21 07:08:01;;;;;;;17.63;12.18;;;25.20;46.90;;;;;;5071287;28;20811;-71
2023/06/21 07:10:27;;;;;;;21.27;12.75;;;25.20;45.70;;;;;;5071282;28;20439;-69
2023/06/21 07:12:52;;;;;;;22.40;12.60;;;25.20;46.50;;;;;;5071389;28;20990;-70
2023/06/21 07:15:18;;;;;;;23.33;12.97;;;25.10;48.20;;;;;;5071703;28;20395;-71
2023/06/21 07:17:43;;;;;;;21.30;12.30;;;25.00;47.50;;;;;;5071311;28;20392;-71
2023/06/21 07:20:09;;;;;;;17.17;11.93;;;25.00;48.70;;;;;;5071052;28;20465;-71
2023/06/21 07:22:35;;;;;;;23.30;12.70;;;25.20;47.70;;;;;;5071647;28;20384;-71
2023/06/21 07:25:00;;;;;;;17.45;11.70;;;25.20;47.10;;;;;;5071356;28;20784;-70
2023/06/21 07:27:27;;;;;;;23.40;12.60;;;24.90;50.00;;;;;;5071446;28;20395;-70
2023/06/21 07:29:53;;;;;;;17.08;12.00;;;24.70;52.90;;;;;;5070912;28;20861;-72
2023/06/21 07:32:18;;;;;;;20.37;13.37;;;24.70;52.40;;;;;;5069834;28;20499;-69
2023/06/21 07:34:44;;;;;;;17.40;13.03;;;24.80;52.30;;;;;;5074795;28;20798;-71
2023/06/21 07:37:09;;;;;;;19.80;12.97;;;25.00;50.50;;;;;;5091062;28;20397;-70
2023/06/21 07:39:35;;;;;;;20.75;12.90;;;25.10;48.30;;;;;;5087219;28;20798;-71
2023/06/21 07:42:04;;;;;;;18.93;13.00;;;25.30;46.80;;;;;;5070731;28;20391;-71
2023/06/21 07:44:33;;;;;;;19.92;13.60;;;25.30;46.60;;;;;;5071512;28;20750;-70
2023/06/21 07:46:59;;;;;;;21.77;13.80;;;25.30;46.60;;;;;;5051139;28;20888;-69
2023/06/21 07:49:24;;;;;;;15.97;12.50;;;25.10;47.70;;;;;;5070994;28;20460;-71
2023/06/21 07:51:50;;;;;;;15.90;12.30;;;25.00;48.90;;;;;;5070526;28;20399;-72
2023/06/21 07:54:16;;;;;;;17.63;12.40;;;24.80;50.30;;;;;;5070871;28;20440;-71
2023/06/21 07:56:41;;;;;;;14.48;11.20;;;24.80;51.00;;;;;;5070756;28;20884;-71
2023/06/21 07:59:07;;;;;;;13.90;12.07;;;25.10;48.30;;;;;;5070981;28;20465;-69
2023/06/21 08:01:33;;;;;;;15.15;11.25;;;25.20;47.80;;;;;;5070875;28;20479;-70
2023/06/21 08:04:01;;;;;;;19.60;11.50;;;25.20;46.70;;;;;;5070717;28;20490;-69
2023/06/21 08:06:27;;;;;;;17.23;12.30;;;25.00;47.80;;;;;;5070958;28;20388;-71
2023/06/21 08:08:53;;;;;;;17.08;12.65;;;24.90;49.30;;;;;;5071018;28;20403;-73
2023/06/21 08:11:18;;;;;;;16.73;12.17;;;24.80;49.50;;;;;;5070964;28;20791;-70
2023/06/21 08:13:44;;;;;;;14.93;12.00;;;24.90;49.90;;;;;;5069697;28;20443;-70
2023/06/21 08:16:10;;;;;;;20.90;12.20;;;25.40;46.80;;;;;;5070589;28;20384;-71
2023/06/21 08:18:35;;;;;;;16.92;11.85;;;25.30;46.30;;;;;;5070113;28;20458;-71
2023/06/21 08:21:01;;;;;;;16.80;11.70;;;25.20;48.00;;;;;;5069800;28;20938;-70
2023/06/21 08:23:26;;;;;;;12.90;10.87;;;25.20;46.30;;;;;;5070590;28;20705;-70
2023/06/21 08:25:52;;;;;;;13.83;9.97;;;25.10;45.20;;;;;;5070279;28;20394;-71
2023/06/21 08:28:17;;;;;;;14.07;9.30;;;25.00;42.80;;;;;;5070274;28;20468;-71
2023/06/21 08:30:43;;;;;;;15.40;10.50;;;25.20;41.90;;;;;;5070392;28;20387;-74
2023/06/21 08:33:09;;;;;;;16.63;10.02;;;25.40;41.80;;;;;;5053160;28;20478;-76
2023/06/21 08:35:36;;;;;;;15.73;10.70;;;25.90;40.00;;;;;;5070613;28;20765;-76
2023/06/21 08:38:01;;;;;;;13.33;10.53;;;26.30;36.50;;;;;;5071187;28;20391;-76
2023/06/21 08:40:31;;;;;;;15.55;10.85;;;26.60;35.20;;;;;;5070089;28;20521;-71
2023/06/21 08:42:58;;;;;;;15.45;10.60;;;26.70;34.20;;;;;;5068725;28;20860;-70
2023/06/21 08:45:23;;;;;;;13.40;10.75;;;26.50;35.20;;;;;;5069911;28;20459;-72
2023/06/21 08:47:53;;;;;;;15.67;11.50;;;26.10;34.30;;;;;;5067134;28;20838;-71
2023/06/21 08:50:22;;;;;;;14.80;10.40;;;25.80;35.50;;;;;;5070004;28;20437;-71
2023/06/21 08:52:51;;;;;;;12.68;10.25;;;25.70;35.60;;;;;;5071874;28;20453;-71
2023/06/21 08:55:20;;;;;;;13.60;9.60;;;25.70;36.00;;;;;;5067535;28;20416;-71
2023/06/21 08:57:52;;;;;;;14.40;10.00;;;26.10;34.40;;;;;;5053374;28;20377;-73
2023/06/21 09:00:25;;;;;;;13.43;10.00;;;26.60;31.60;;;;;;5072352;28;20395;-71
2023/06/21 09:03:29;;;;;;;13.10;10.02;;;27.00;29.60;;;;;;5053127;28;20464;-72
2023/06/21 09:06:00;;;;;;;13.88;10.00;;;27.20;29.90;;;;;;5055824;28;20892;-73
2023/06/21 09:08:26;;;;;;;14.48;10.65;;;27.00;30.30;;;;;;5063426;28;20392;-71
2023/06/21 09:10:52;;;;;;;11.70;8.68;;;26.70;30.00;;;;;;5062601;28;20377;-72
2023/06/21 09:13:19;;;;;;;10.88;8.90;;;26.50;28.70;;;;;;5064863;28;20754;-71
2023/06/21 09:15:50;;;;;;;10.97;9.27;;;26.30;29.40;;;;;;5098828;22;20543;-76
2023/06/21 09:18:15;;;;;;;12.82;9.10;;;26.20;30.30;;;;;;5090739;28;20373;-75
2023/06/21 09:20:46;;;;;;;13.57;9.27;;;26.30;29.90;;;;;;5090484;28;20398;-75
2023/06/21 09:23:11;;;;;;;13.45;10.00;;;26.50;29.00;;;;;;5090431;28;20394;-76
2023/06/21 09:25:37;;;;;;;13.30;9.70;;;26.60;28.00;;;;;;5090079;28;20512;-75
2023/06/21 09:28:03;;;;;;;14.18;9.70;;;26.50;28.90;;;;;;5088732;28;20519;-75
2023/06/21 09:30:29;;;;;;;16.13;10.25;;;26.30;30.90;;;;;;5090582;28;20778;-75
2023/06/21 09:32:56;;;;;;;13.75;10.73;;;26.20;31.50;;;;;;5091328;28;20474;-76
2023/06/21 09:35:22;;;;;;;12.05;9.98;;;26.10;31.80;;;;;;5094734;28;20393;-77
2023/06/21 09:37:47;;;;;;;14.15;10.95;;;26.20;31.70;;;;;;5095593;28;20389;-76
2023/06/21 09:40:13;;;;;;;15.05;10.35;;;26.30;30.50;;;;;;5091490;28;20397;-75
2023/06/21 09:42:44;;;;;;;15.90;10.47;;;26.10;32.00;;;;;;5072080;28;20390;-76
2023/06/21 09:45:17;;;;;;;12.80;9.70;;;25.90;31.70;;;;;;5090212;28;20405;-76
2023/06/21 09:47:43;;;;;;;15.35;10.23;;;26.10;31.00;;;;;;5090564;28;20519;-76
2023/06/21 09:50:10;;;;;;;15.18;10.98;;;26.30;30.60;;;;;;5090383;28;20457;-76
2023/06/21 09:52:36;;;;;;;17.58;11.05;;;26.20;30.50;;;;;;5090160;28;20374;-75
2023/06/21 09:55:05;;;;;;;17.20;10.65;;;26.20;30.50;;;;;;5090556;28;20382;-75
2023/06/21 09:57:32;;;;;;;19.40;11.50;;;26.00;31.10;;;;;;5090620;28;20390;-76
2023/06/21 09:59:59;;;;;;;15.38;10.40;;;26.00;32.30;;;;;;5090048;28;20469;-76
2023/06/21 10:02:26;;;;;;;14.65;10.60;;;26.20;30.70;;;;;;5090259;28;20943;-76
2023/06/21 10:04:54;;;;;;;12.25;10.38;;;26.50;28.60;;;;;;5090205;28;20715;-76
2023/06/21 10:07:26;;;;;;;12.13;9.52;;;26.60;27.50;;;;;;5090431;28;20449;-76
2023/06/21 10:09:51;;;;;;;12.80;9.82;;;27.10;26.70;;;;;;5090588;28;20870;-75
2023/06/21 10:12:17;;;;;;;13.88;10.27;;;27.40;24.80;;;;;;5090901;28;20394;-75
2023/06/21 10:14:43;;;;;;;12.77;10.27;;;27.30;24.30;;;;;;5081788;28;20503;-75
2023/06/21 10:17:10;;;;;;;13.38;10.20;;;27.20;24.40;;;;;;5070398;28;20383;-76
2023/06/21 10:19:36;;;;;;;11.07;9.38;;;27.10;24.90;;;;;;5070078;28;20396;-76
2023/06/21 10:22:07;;;;;;;14.40;9.40;;;27.30;24.60;;;;;;5069958;28;20880;-76
2023/06/21 10:24:54;;;;;;;11.98;9.77;;;26.90;25.20;;;;;;5070228;28;20387;-75
2023/06/21 10:27:20;;;;;;;16.80;11.80;;;26.60;26.90;;;;;;5070122;28;20794;-76
2023/06/21 10:29:53;;;;;;;13.25;10.63;;;26.40;29.20;;;;;;5070159;28;20744;-76
2023/06/21 10:32:20;;;;;;;12.82;10.73;;;26.40;29.20;;;;;;5069717;28;20559;-76
2023/06/21 10:35:03;;;;;;;16.10;11.85;;;26.60;28.30;;;;;;5069872;28;20383;-76
2023/06/21 10:38:03;;;;;;;16.50;11.43;;;26.80;27.00;;;;;;5054422;28;20379;-76
2023/06/21 10:40:30;;;;;;;14.20;10.57;;;26.70;26.10;;;;;;5073902;28;20568;-76
2023/06/21 10:42:58;;;;;;;14.27;10.07;;;26.60;26.50;;;;;;5056305;28;20495;-76
2023/06/21 10:45:24;;;;;;;12.30;9.70;;;26.60;26.30;;;;;;5073729;28;20390;-77
2023/06/21 10:47:53;;;;;;;17.27;9.75;;;26.80;26.00;;;;;;5073203;28;21065;-77
2023/06/21 10:50:20;;;;;;;11.35;8.80;;;27.10;23.70;;;;;;5073603;28;20395;-76
2023/06/21 10:52:47;;;;;;;11.00;8.10;;;27.50;22.50;;;;;;5054933;28;20403;-78
2023/06/21 10:55:14;;;;;;;14.30;8.55;;;27.60;21.10;;;;;;5073533;28;20907;-76
2023/06/21 10:57:40;;;;;;;8.85;8.05;;;27.40;21.80;;;;;;5073173;28;20396;-77
2023/06/21 11:00:07;;;;;;;11.18;8.20;;;27.20;21.90;;;;;;5073083;28;20410;-77
2023/06/21 11:02:34;;;;;;;11.63;8.32;;;27.50;20.60;;;;;;5072962;28;20476;-74
2023/06/21 11:05:22;;;;;;;10.30;8.10;;;27.80;19.60;;;;;;5073039;28;20394;-74
2023/06/21 11:08:11;;;;;;;12.40;7.55;;;28.30;17.70;;;;;;5072786;28;20372;-74
2023/06/21 11:10:40;;;;;;;9.43;7.00;;;28.80;16.90;;;;;;5073355;28;20888;-75
2023/06/21 11:13:07;;;;;;;12.88;8.73;;;29.10;16.80;;;;;;5072754;28;20399;-75
2023/06/21 11:15:33;;;;;;;12.95;8.20;;;29.20;17.00;;;;;;5073040;28;20404;-76
2023/06/21 11:18:05;;;;;;;10.75;8.60;;;28.80;16.60;;;;;;5073046;28;20387;-75
2023/06/21 11:20:43;;;;;;;14.55;10.23;;;28.40;18.80;;;;;;5072902;28;20396;-75
2023/06/21 11:23:09;;;;;;;13.93;9.95;;;27.70;22.10;;;;;;5073092;28;20797;-75
2023/06/21 11:25:38;;;;;;;13.40;9.55;;;27.70;21.70;;;;;;5072612;28;20864;-76
2023/06/21 11:28:29;;;;;;;11.90;8.60;;;27.50;20.00;;;;;;5072976;28;20372;-75
2023/06/21 11:31:01;;;;;;;13.07;8.80;;;27.60;19.10;;;;;;5072463;28;20376;-75
2023/06/21 11:33:31;;;;;;;11.15;9.32;;;27.90;19.00;;;;;;5072758;28;20403;-75
2023/06/21 11:36:03;;;;;;;12.32;8.90;;;28.20;18.60;;;;;;5072566;28;20388;-74
2023/06/21 11:38:34;;;;;;;9.13;7.70;;;28.30;18.60;;;;;;5054877;28;20479;-75
2023/06/21 11:41:01;;;;;;;8.13;7.32;;;28.30;16.70;;;;;;5072690;28;20395;-75
2023/06/21 11:43:27;;;;;;;9.70;6.88;;;28.10;17.30;;;;;;5072459;28;20380;-76
2023/06/21 11:46:00;;;;;;;10.70;7.80;;;27.60;18.10;;;;;;5072249;28;20518;-75
2023/06/21 11:48:26;;;;;;;9.50;7.03;;;27.60;18.40;;;;;;5071150;28;20387;-75
2023/06/21 11:50:52;;;;;;;10.57;7.30;;;27.80;17.90;;;;;;5071969;28;20407;-75
2023/06/21 11:53:23;;;;;;;8.63;7.30;;;27.60;18.00;;;;;;5072398;28;20385;-75
2023/06/21 11:55:51;;;;;;;10.50;7.30;;;27.70;17.80;;;;;;5072042;28;20410;-75
2023/06/21 11:58:17;;;;;;;8.87;6.90;;;27.80;17.70;;;;;;5072237;28;20450;-76
2023/06/21 12:00:45;;;;;;;8.95;6.40;;;28.10;17.80;;;;;;5072472;28;20395;-74
2023/06/21 12:03:11;;;;;;;8.77;7.03;;;28.40;16.30;;;;;;5072909;28;20418;-75
2023/06/21 12:06:09;;;;;;;11.60;6.10;;;28.20;17.30;;;;;;5070831;28;20399;-76
2023/06/21 12:08:36;;;;;;;8.50;5.90;;;28.30;16.30;;;;;;5017666;28;20449;-74
2023/06/21 12:11:04;;;;;;;8.35;5.95;;;28.50;15.30;;;;;;5072918;28;20387;-75
2023/06/21 12:13:31;;;;;;;7.82;6.40;;;28.80;15.10;;;;;;5072474;28;20819;-75
2023/06/21 12:15:59;;;;;;;6.30;5.50;;;28.70;15.70;;;;;;5072674;28;20400;-74
2023/06/21 12:18:27;;;;;;;8.75;5.57;;;28.40;16.10;;;;;;5072003;28;20455;-74
2023/06/21 12:21:02;;;;;;;8.75;5.65;;;28.60;15.60;;;;;;5071949;28;21049;-75
2023/06/21 12:23:31;;;;;;;6.22;5.60;;;28.70;15.00;;;;;;5072187;28;20495;-74
2023/06/21 12:26:01;;;;;;;7.60;6.18;;;28.30;15.50;;;;;;5071379;28;20688;-74
2023/06/21 12:28:27;;;;;;;9.85;5.60;;;28.40;15.90;;;;;;5071872;28;20459;-74
2023/06/21 12:30:56;;;;;;;5.82;5.22;;;28.80;15.40;;;;;;5072049;28;20479;-75
2023/06/21 12:33:26;;;;;;;9.32;5.65;;;28.90;14.10;;;;;;5070256;28;20443;-75
2023/06/21 12:36:09;;;;;;;6.33;5.53;;;28.70;14.40;;;;;;5071307;28;20412;-75
2023/06/21 12:38:34;;;;;;;6.20;5.60;;;28.40;14.90;;;;;;5071872;28;20379;-75